Spring Valley, Texas
Current Conditions -  °F | °C
As of 2:15 AM on Tuesday 21 Oct 2014 (Local Time) from KMCJ Reporting Station
Clear Clear  
Wind Chill: 19°   Ceiling: Unl
Heat Index: 19°   Visibility: 10mi
Dew Point: 13°   Wind: 0mph
Humidity: 68%   Direction: NA
Pressure: 29.98"   Gusts: NA
Location:  29.7698°N, 95.5164°W
Report Text: KMCJ 210715Z AUTO 00000KT 10SM CLR 19/13 A2998 RMK AO1
Loading
Personal Weather Stations






























Interactive Weather Map
Tropical Storm Tracking
New forecast layout! Learn more

10-Day Weather Forecast

Advertisements
Track Severe Weather on mobile